Menos, Arkansas
Current Conditions -  °F | °C
As of 4:35 PM on Monday 20 Oct 2014 (Local Time) from KMEZ Reporting Station
Scattered Clouds Scattered Clouds  
Wind Chill: 75°   Ceiling: Unl
Heat Index: 75°   Visibility: 10mi
Dew Point: 61°   Wind: 0mph
Humidity: 61%   Direction: NA
Pressure: 30.04"   Gusts: NA
Location:  34.592°N, 94.1901°W
Report Text: KMEZ 202135Z AUTO 00000KT 10SM SCT047 SCT080 24/16 A3004 RMK AO2
Loading
Personal Weather Stations






























Interactive Weather Map
Tropical Storm Tracking
New forecast layout! Learn more

10-Day Weather Forecast

Advertisements
Track Severe Weather on mobile